Terminal Aerodrome Forecast
Issued by NWS Buffalo, NY

Home | Current Version | Previous Version | Text Only | Print | Product List | Glossary On
Versions: 1 2 3 4 5 6 7 8 9 10 11 12 13 14 15 16 17 18 19 20 21
000
FTUS41 KBUF 261120
TAFART
TAF
KART 261120Z 2612/2712 23008KT P6SM SCT060 BKN250
     FM261500 23011KT P6SM BKN250
     FM262300 VRB04KT P6SM BKN050
     FM270400 18005KT P6SM BKN050
     FM270800 19006KT P6SM VCSH BKN050=

USA.gov is the U.S. government's official web portal to all federal, state and local government web resources and services.